sensor_id;sensor_type;location;lat;lon;timestamp;pressure;altitude;pressure_sealevel;temperature;humidity
49945;BME280;35838;49.134;9.212;2022-10-17T00:00:11;100348.78;;;14.72;100.00
49945;BME280;35838;49.134;9.212;2022-10-17T00:01:42;100351.38;;;14.72;100.00
49945;BME280;35838;49.134;9.212;2022-10-17T00:03:16;100346.19;;;14.69;100.00
49945;BME280;35838;49.134;9.212;2022-10-17T00:04:48;100346.19;;;14.69;100.00
49945;BME280;35838;49.134;9.212;2022-10-17T00:06:22;100350.53;;;14.70;100.00
49945;BME280;35838;49.134;9.212;2022-10-17T00:07:56;100350.53;;;14.70;100.00
49945;BME280;35838;49.134;9.212;2022-10-17T00:09:30;100354.91;;;14.70;100.00
49945;BME280;35838;49.134;9.212;2022-10-17T00:11:07;100349.63;;;14.73;99.98
49945;BME280;35838;49.134;9.212;2022-10-17T00:12:41;100342.72;;;14.69;100.00
49945;BME280;35838;49.134;9.212;2022-10-17T00:14:15;100348.78;;;14.72;99.69
49945;BME280;35838;49.134;9.212;2022-10-17T00:15:52;100347.03;;;14.71;100.00
49945;BME280;35838;49.134;9.212;2022-10-17T00:17:26;100346.19;;;14.71;100.00
49945;BME280;35838;49.134;9.212;2022-10-17T00:18:58;100357.47;;;14.75;99.60
49945;BME280;35838;49.134;9.212;2022-10-17T00:20:33;100353.03;;;14.77;99.31
49945;BME280;35838;49.134;9.212;2022-10-17T00:22:05;100349.63;;;14.73;99.21
49945;BME280;35838;49.134;9.212;2022-10-17T00:23:39;100348.81;;;14.69;99.18
49945;BME280;35838;49.134;9.212;2022-10-17T00:25:13;100352.28;;;14.70;99.51
49945;BME280;35838;49.134;9.212;2022-10-17T00:26:47;100354.09;;;14.63;99.51
49945;BME280;35838;49.134;9.212;2022-10-17T00:28:21;100352.34;;;14.62;99.83
49945;BME280;35838;49.134;9.212;2022-10-17T00:29:55;100355.81;;;14.64;99.85
49945;BME280;35838;49.134;9.212;2022-10-17T00:31:29;100360.16;;;14.64;99.61
49945;BME280;35838;49.134;9.212;2022-10-17T00:33:03;100353.22;;;14.64;99.25
49945;BME280;35838;49.134;9.212;2022-10-17T00:34:37;100359.34;;;14.60;98.79
49945;BME280;35838;49.134;9.212;2022-10-17T00:36:14;100348.94;;;14.58;99.06
49945;BME280;35838;49.134;9.212;2022-10-17T00:37:48;100357.81;;;14.45;99.79
49945;BME280;35838;49.134;9.212;2022-10-17T00:39:20;100355.25;;;14.42;100.00
49945;BME280;35838;49.134;9.212;2022-10-17T00:40:54;100363.97;;;14.38;100.00
49945;BME280;35838;49.134;9.212;2022-10-17T00:42:26;100362.28;;;14.35;100.00
49945;BME280;35838;49.134;9.212;2022-10-17T00:44:02;100364.97;;;14.29;100.00
49945;BME280;35838;49.134;9.212;2022-10-17T00:45:36;100351.91;;;14.29;100.00
49945;BME280;35838;49.134;9.212;2022-10-17T00:47:15;100368.41;;;14.33;100.00
49945;BME280;35838;49.134;9.212;2022-10-17T00:48:48;100355.41;;;14.28;100.00
49945;BME280;35838;49.134;9.212;2022-10-17T00:50:23;100356.19;;;14.33;100.00
49945;BME280;35838;49.134;9.212;2022-10-17T00:52:00;100357.06;;;14.35;100.00
49945;BME280;35838;49.134;9.212;2022-10-17T00:53:36;100359.66;;;14.35;100.00
49945;BME280;35838;49.134;9.212;2022-10-17T00:55:14;100353.59;;;14.33;100.00
49945;BME280;35838;49.134;9.212;2022-10-17T00:56:50;100355.31;;;14.34;100.00
49945;BME280;35838;49.134;9.212;2022-10-17T00:58:24;100356.19;;;14.33;99.82
49945;BME280;35838;49.134;9.212;2022-10-17T00:59:59;100351.00;;;14.32;100.00
49945;BME280;35838;49.134;9.212;2022-10-17T01:01:32;100357.16;;;14.28;100.00
49945;BME280;35838;49.134;9.212;2022-10-17T01:03:09;100351.91;;;14.29;100.00
49945;BME280;35838;49.134;9.212;2022-10-17T01:04:46;100361.41;;;14.33;99.86
49945;BME280;35838;49.134;9.212;2022-10-17T01:06:18;100357.09;;;14.34;99.63
49945;BME280;35838;49.134;9.212;2022-10-17T01:07:52;100361.41;;;14.33;99.45
49945;BME280;35838;49.134;9.212;2022-10-17T01:09:26;100363.25;;;14.28;99.10
49945;BME280;35838;49.134;9.212;2022-10-17T01:11:05;100364.03;;;14.33;99.09
49945;BME280;35838;49.134;9.212;2022-10-17T01:12:51;100361.47;;;14.30;98.83
49945;BME280;35838;49.134;9.212;2022-10-17T01:14:33;100362.34;;;14.29;98.13
49945;BME280;35838;49.134;9.212;2022-10-17T01:16:17;100358.91;;;14.24;98.20
49945;BME280;35838;49.134;9.212;2022-10-17T01:18:10;100370.22;;;14.26;98.17
49945;BME280;35838;49.134;9.212;2022-10-17T01:20:07;100371.06;;;14.28;97.69
49945;BME280;35838;49.134;9.212;2022-10-17T01:21:52;100376.47;;;14.11;99.45
49945;BME280;35838;49.134;9.212;2022-10-17T01:23:47;100375.63;;;14.10;99.73
49945;BME280;35838;49.134;9.212;2022-10-17T01:25:28;100380.03;;;14.05;100.00
49945;BME280;35838;49.134;9.212;2022-10-17T01:27:28;100378.19;;;14.12;100.00
49945;BME280;35838;49.134;9.212;2022-10-17T01:29:17;100377.38;;;14.08;99.83
49945;BME280;35838;49.134;9.212;2022-10-17T01:31:08;100380.03;;;14.05;99.36
49945;BME280;35838;49.134;9.212;2022-10-17T01:32:47;100375.66;;;14.09;99.61
49945;BME280;35838;49.134;9.212;2022-10-17T01:34:27;100383.47;;;14.09;99.53
49945;BME280;35838;49.134;9.212;2022-10-17T01:36:07;100387.00;;;14.05;99.58
49945;BME280;35838;49.134;9.212;2022-10-17T01:37:46;100379.19;;;14.03;99.25
49945;BME280;35838;49.134;9.212;2022-10-17T01:39:25;100380.09;;;14.01;99.78
49945;BME280;35838;49.134;9.212;2022-10-17T01:41:08;100381.88;;;13.97;99.84
49945;BME280;35838;49.134;9.212;2022-10-17T01:42:52;100387.88;;;14.02;100.00
49945;BME280;35838;49.134;9.212;2022-10-17T01:44:31;100387.00;;;14.03;100.00
49945;BME280;35838;49.134;9.212;2022-10-17T01:46:15;100385.28;;;14.02;100.00
49945;BME280;35838;49.134;9.212;2022-10-17T01:47:50;100385.22;;;14.07;100.00
49945;BME280;35838;49.134;9.212;2022-10-17T01:49:27;100381.84;;;13.99;100.00
49945;BME280;35838;49.134;9.212;2022-10-17T01:51:06;100382.66;;;14.02;100.00
49945;BME280;35838;49.134;9.212;2022-10-17T01:52:44;100374.00;;;14.00;100.00
49945;BME280;35838;49.134;9.212;2022-10-17T01:54:22;100379.25;;;13.95;100.00
49945;BME280;35838;49.134;9.212;2022-10-17T01:55:59;100375.75;;;13.98;100.00
49945;BME280;35838;49.134;9.212;2022-10-17T01:57:38;100380.06;;;14.02;100.00
49945;BME280;35838;49.134;9.212;2022-10-17T01:59:16;100374.91;;;13.98;100.00
49945;BME280;35838;49.134;9.212;2022-10-17T02:00:52;100366.22;;;13.95;100.00
49945;BME280;35838;49.134;9.212;2022-10-17T02:02:31;100374.91;;;13.96;100.00
49945;BME280;35838;49.134;9.212;2022-10-17T02:04:07;100372.31;;;13.96;100.00
49945;BME280;35838;49.134;9.212;2022-10-17T02:05:42;100374.88;;;13.99;100.00
49945;BME280;35838;49.134;9.212;2022-10-17T02:07:14;100373.09;;;14.01;100.00
49945;BME280;35838;49.134;9.212;2022-10-17T02:08:49;100375.69;;;14.04;100.00
49945;BME280;35838;49.134;9.212;2022-10-17T02:10:30;100367.94;;;13.97;100.00
49945;BME280;35838;49.134;9.212;2022-10-17T02:12:17;100368.97;;;13.80;100.00
49945;BME280;35838;49.134;9.212;2022-10-17T02:14:19;100367.13;;;13.90;100.00
49945;BME280;35838;49.134;9.212;2022-10-17T02:16:07;100373.25;;;13.87;100.00
49945;BME280;35838;49.134;9.212;2022-10-17T02:17:54;100370.63;;;13.89;100.00
49945;BME280;35838;49.134;9.212;2022-10-17T02:19:33;100373.25;;;13.87;100.00
49945;BME280;35838;49.134;9.212;2022-10-17T02:21:19;100377.63;;;13.84;100.00
49945;BME280;35838;49.134;9.212;2022-10-17T02:23:03;100366.31;;;13.85;100.00
49945;BME280;35838;49.134;9.212;2022-10-17T02:24:43;100371.56;;;13.83;100.00
49945;BME280;35838;49.134;9.212;2022-10-17T02:26:24;100370.66;;;13.86;99.82
49945;BME280;35838;49.134;9.212;2022-10-17T02:28:06;100375.88;;;13.86;100.00
49945;BME280;35838;49.134;9.212;2022-10-17T02:29:46;100384.63;;;13.80;100.00
49945;BME280;35838;49.134;9.212;2022-10-17T02:31:25;100376.81;;;13.80;100.00
49945;BME280;35838;49.134;9.212;2022-10-17T02:33:06;100373.31;;;13.81;99.90
49945;BME280;35838;49.134;9.212;2022-10-17T02:34:45;100378.53;;;13.79;100.00
49945;BME280;35838;49.134;9.212;2022-10-17T02:36:22;100376.78;;;13.83;100.00
49945;BME280;35838;49.134;9.212;2022-10-17T02:37:55;100379.38;;;13.82;100.00
49945;BME280;35838;49.134;9.212;2022-10-17T02:39:30;100382.03;;;13.80;100.00
49945;BME280;35838;49.134;9.212;2022-10-17T02:41:04;100385.53;;;13.77;100.00
49945;BME280;35838;49.134;9.212;2022-10-17T02:42:41;100393.38;;;13.77;99.97
49945;BME280;35838;49.134;9.212;2022-10-17T02:44:16;100399.44;;;13.78;99.98
49945;BME280;35838;49.134;9.212;2022-10-17T02:45:50;100396.88;;;13.73;100.00
49945;BME280;35838;49.134;9.212;2022-10-17T02:47:26;100395.09;;;13.77;100.00
49945;BME280;35838;49.134;9.212;2022-10-17T02:49:07;100403.84;;;13.70;100.00
49945;BME280;35838;49.134;9.212;2022-10-17T02:50:50;100396.91;;;13.70;100.00
49945;BME280;35838;49.134;9.212;2022-10-17T02:52:31;100410.81;;;13.71;100.00
49945;BME280;35838;49.134;9.212;2022-10-17T02:54:12;100404.78;;;13.66;100.00
49945;BME280;35838;49.134;9.212;2022-10-17T02:55:52;100406.50;;;13.68;100.00
49945;BME280;35838;49.134;9.212;2022-10-17T02:57:34;100401.22;;;13.73;100.00
49945;BME280;35838;49.134;9.212;2022-10-17T02:59:11;100403.84;;;13.71;99.93
49945;BME280;35838;49.134;9.212;2022-10-17T03:00:45;100401.22;;;13.73;99.97
49945;BME280;35838;49.134;9.212;2022-10-17T03:02:19;100410.78;;;13.72;99.87
49945;BME280;35838;49.134;9.212;2022-10-17T03:04:07;100396.81;;;13.78;99.30
49945;BME280;35838;49.134;9.212;2022-10-17T03:05:41;100405.47;;;13.82;98.95
49945;BME280;35838;49.134;9.212;2022-10-17T03:07:15;100393.38;;;13.77;99.18
49945;BME280;35838;49.134;9.212;2022-10-17T03:08:49;100409.00;;;13.77;99.07
49945;BME280;35838;49.134;9.212;2022-10-17T03:10:21;100405.53;;;13.78;99.02
49945;BME280;35838;49.134;9.212;2022-10-17T03:11:55;100405.47;;;13.82;98.81
49945;BME280;35838;49.134;9.212;2022-10-17T03:13:29;100410.72;;;13.80;98.30
49945;BME280;35838;49.134;9.212;2022-10-17T03:15:05;100411.63;;;13.77;98.14
49945;BME280;35838;49.134;9.212;2022-10-17T03:16:39;100405.63;;;13.69;98.56
49945;BME280;35838;49.134;9.212;2022-10-17T03:18:13;100410.84;;;13.63;98.97
49945;BME280;35838;49.134;9.212;2022-10-17T03:19:49;100411.75;;;13.63;99.05
49945;BME280;35838;49.134;9.212;2022-10-17T03:21:21;100413.44;;;13.66;99.05
49945;BME280;35838;49.134;9.212;2022-10-17T03:22:55;100410.84;;;13.69;98.84
49945;BME280;35838;49.134;9.212;2022-10-17T03:24:29;100408.22;;;13.69;98.38
49945;BME280;35838;49.134;9.212;2022-10-17T03:26:03;100409.09;;;13.68;98.04
49945;BME280;35838;49.134;9.212;2022-10-17T03:27:37;100411.69;;;13.67;98.38
49945;BME280;35838;49.134;9.212;2022-10-17T03:29:12;100413.44;;;13.68;98.33
49945;BME280;35838;49.134;9.212;2022-10-17T03:30:43;100413.41;;;13.71;98.09
49945;BME280;35838;49.134;9.212;2022-10-17T03:32:18;100416.00;;;13.72;97.25
49945;BME280;35838;49.134;9.212;2022-10-17T03:33:52;100417.84;;;13.61;97.55
49945;BME280;35838;49.134;9.212;2022-10-17T03:35:28;100407.47;;;13.53;97.87
49945;BME280;35838;49.134;9.212;2022-10-17T03:37:02;100414.53;;;13.43;98.30
49945;BME280;35838;49.134;9.212;2022-10-17T03:38:37;100403.19;;;13.44;98.61
49945;BME280;35838;49.134;9.212;2022-10-17T03:40:11;100416.22;;;13.44;98.84
49945;BME280;35838;49.134;9.212;2022-10-17T03:41:45;100414.53;;;13.40;98.92
49945;BME280;35838;49.134;9.212;2022-10-17T03:43:19;100416.25;;;13.38;99.23
49945;BME280;35838;49.134;9.212;2022-10-17T03:44:53;100413.63;;;13.38;99.39
49945;BME280;35838;49.134;9.212;2022-10-17T03:46:27;100408.44;;;13.41;98.86
49945;BME280;35838;49.134;9.212;2022-10-17T03:48:01;100411.91;;;13.43;98.52
49945;BME280;35838;49.134;9.212;2022-10-17T03:49:35;100412.75;;;13.45;98.16
49945;BME280;35838;49.134;9.212;2022-10-17T03:51:12;100404.94;;;13.47;98.02
49945;BME280;35838;49.134;9.212;2022-10-17T03:52:48;100410.16;;;13.44;97.91
49945;BME280;35838;49.134;9.212;2022-10-17T03:54:20;100414.53;;;13.43;97.78
49945;BME280;35838;49.134;9.212;2022-10-17T03:55:54;100412.78;;;13.42;97.73
49945;BME280;35838;49.134;9.212;2022-10-17T03:57:28;100415.41;;;13.42;97.73
49945;BME280;35838;49.134;9.212;2022-10-17T03:59:02;100414.53;;;13.40;97.54
49945;BME280;35838;49.134;9.212;2022-10-17T04:00:36;100414.50;;;13.37;97.41
49945;BME280;35838;49.134;9.212;2022-10-17T04:02:10;100409.34;;;13.31;97.73
49945;BME280;35838;49.134;9.212;2022-10-17T04:03:47;100418.91;;;13.32;97.91
49945;BME280;35838;49.134;9.212;2022-10-17T04:05:21;100415.38;;;13.36;97.53
49945;BME280;35838;49.134;9.212;2022-10-17T04:06:58;100416.31;;;13.30;97.61
49945;BME280;35838;49.134;9.212;2022-10-17T04:08:33;100420.66;;;13.27;97.64
49945;BME280;35838;49.134;9.212;2022-10-17T04:10:08;100423.22;;;13.35;97.50
49945;BME280;35838;49.134;9.212;2022-10-17T04:11:43;100416.31;;;13.30;97.40
49945;BME280;35838;49.134;9.212;2022-10-17T04:13:17;100420.69;;;13.25;97.65
49945;BME280;35838;49.134;9.212;2022-10-17T04:14:48;100423.28;;;13.25;97.67
49945;BME280;35838;49.134;9.212;2022-10-17T04:16:22;100428.50;;;13.28;97.45
49945;BME280;35838;49.134;9.212;2022-10-17T04:17:57;100425.03;;;13.25;97.35
49945;BME280;35838;49.134;9.212;2022-10-17T04:19:31;100429.41;;;13.23;97.34
49945;BME280;35838;49.134;9.212;2022-10-17T04:21:05;100438.94;;;13.24;97.26
49945;BME280;35838;49.134;9.212;2022-10-17T04:22:40;100432.03;;;13.21;97.55
49945;BME280;35838;49.134;9.212;2022-10-17T04:24:14;100439.78;;;13.27;97.65
49945;BME280;35838;49.134;9.212;2022-10-17T04:25:48;100441.53;;;13.28;98.06
49945;BME280;35838;49.134;9.212;2022-10-17T04:27:22;100447.59;;;13.29;97.43
49945;BME280;35838;49.134;9.212;2022-10-17T04:28:56;100442.44;;;13.20;96.98
49945;BME280;35838;49.134;9.212;2022-10-17T04:30:30;100450.25;;;13.20;97.12
49945;BME280;35838;49.134;9.212;2022-10-17T04:32:04;100446.81;;;13.11;97.35
49945;BME280;35838;49.134;9.212;2022-10-17T04:33:38;100452.06;;;13.10;97.83
49945;BME280;35838;49.134;9.212;2022-10-17T04:35:12;100451.19;;;13.08;98.12
49945;BME280;35838;49.134;9.212;2022-10-17T04:36:46;100446.88;;;13.08;98.35
49945;BME280;35838;49.134;9.212;2022-10-17T04:38:24;100441.66;;;13.05;98.20
49945;BME280;35838;49.134;9.212;2022-10-17T04:39:58;100446.88;;;13.05;98.32
49945;BME280;35838;49.134;9.212;2022-10-17T04:41:32;100445.97;;;13.08;98.39
49945;BME280;35838;49.134;9.212;2022-10-17T04:43:06;100445.97;;;13.09;98.24
49945;BME280;35838;49.134;9.212;2022-10-17T04:44:40;100449.47;;;13.10;98.06
49945;BME280;35838;49.134;9.212;2022-10-17T04:46:14;100450.31;;;13.10;97.80
49945;BME280;35838;49.134;9.212;2022-10-17T04:47:48;100456.38;;;13.09;97.89
49945;BME280;35838;49.134;9.212;2022-10-17T04:49:19;100452.91;;;13.13;97.91
49945;BME280;35838;49.134;9.212;2022-10-17T04:50:54;100448.63;;;13.03;97.94
49945;BME280;35838;49.134;9.212;2022-10-17T04:52:28;100457.31;;;13.00;98.79
49945;BME280;35838;49.134;9.212;2022-10-17T04:54:05;100448.59;;;13.06;98.81
49945;BME280;35838;49.134;9.212;2022-10-17T04:55:39;100452.94;;;13.07;98.94
49945;BME280;35838;49.134;9.212;2022-10-17T04:57:13;100450.34;;;13.04;98.51
49945;BME280;35838;49.134;9.212;2022-10-17T04:58:47;100457.31;;;13.00;98.54
49945;BME280;35838;49.134;9.212;2022-10-17T05:00:21;100459.91;;;13.02;98.36
49945;BME280;35838;49.134;9.212;2022-10-17T05:01:53;100458.16;;;13.04;97.75
49945;BME280;35838;49.134;9.212;2022-10-17T05:03:27;100454.69;;;13.05;97.94
49945;BME280;35838;49.134;9.212;2022-10-17T05:05:01;100465.13;;;13.02;97.87
49945;BME280;35838;49.134;9.212;2022-10-17T05:06:36;100461.66;;;13.03;97.79
49945;BME280;35838;49.134;9.212;2022-10-17T05:08:10;100459.94;;;12.99;97.67
49945;BME280;35838;49.134;9.212;2022-10-17T05:09:47;100466.03;;;12.95;97.68
49945;BME280;35838;49.134;9.212;2022-10-17T05:11:20;100468.63;;;12.95;98.02
49945;BME280;35838;49.134;9.212;2022-10-17T05:12:54;100463.44;;;12.95;98.17
49945;BME280;35838;49.134;9.212;2022-10-17T05:14:26;100463.41;;;12.98;98.11
49945;BME280;35838;49.134;9.212;2022-10-17T05:16:00;100467.78;;;12.91;98.27
49945;BME280;35838;49.134;9.212;2022-10-17T05:17:34;100469.53;;;12.92;98.04
49945;BME280;35838;49.134;9.212;2022-10-17T05:19:08;100474.72;;;12.89;98.19
49945;BME280;35838;49.134;9.212;2022-10-17T05:20:42;100470.44;;;12.85;98.85
49945;BME280;35838;49.134;9.212;2022-10-17T05:22:16;100478.22;;;12.91;98.95
49945;BME280;35838;49.134;9.212;2022-10-17T05:23:50;100468.63;;;12.95;98.51
49945;BME280;35838;49.134;9.212;2022-10-17T05:25:27;100472.09;;;12.94;98.69
49945;BME280;35838;49.134;9.212;2022-10-17T05:27:01;100470.34;;;13.02;98.12
49945;BME280;35838;49.134;9.212;2022-10-17T05:28:35;100470.34;;;13.04;97.90
49945;BME280;35838;49.134;9.212;2022-10-17T05:30:10;100468.59;;;13.01;98.39
49945;BME280;35838;49.134;9.212;2022-10-17T05:31:44;100467.72;;;13.05;98.14
49945;BME280;35838;49.134;9.212;2022-10-17T05:33:18;100478.13;;;13.07;97.96
49945;BME280;35838;49.134;9.212;2022-10-17T05:34:52;100469.44;;;13.05;98.10
49945;BME280;35838;49.134;9.212;2022-10-17T05:36:26;100466.84;;;13.03;98.06
49945;BME280;35838;49.134;9.212;2022-10-17T05:38:00;100472.06;;;13.06;97.86
49945;BME280;35838;49.134;9.212;2022-10-17T05:39:34;100467.72;;;13.05;97.88
49945;BME280;35838;49.134;9.212;2022-10-17T05:41:11;100465.09;;;13.08;97.17
49945;BME280;35838;49.134;9.212;2022-10-17T05:42:45;100472.94;;;13.08;97.10
49945;BME280;35838;49.134;9.212;2022-10-17T05:44:20;100472.03;;;13.08;96.87
49945;BME280;35838;49.134;9.212;2022-10-17T05:45:54;100471.16;;;13.12;96.71
49945;BME280;35838;49.134;9.212;2022-10-17T05:47:28;100473.78;;;13.07;96.88
49945;BME280;35838;49.134;9.212;2022-10-17T05:49:02;100480.75;;;13.08;96.63
49945;BME280;35838;49.134;9.212;2022-10-17T05:50:36;100470.31;;;13.05;96.67
49945;BME280;35838;49.134;9.212;2022-10-17T05:52:10;100478.16;;;13.04;96.63
49945;BME280;35838;49.134;9.212;2022-10-17T05:53:44;100474.72;;;13.00;96.63
49945;BME280;35838;49.134;9.212;2022-10-17T05:55:18;100472.09;;;12.97;96.93
49945;BME280;35838;49.134;9.212;2022-10-17T05:56:55;100469.50;;;12.97;96.91
49945;BME280;35838;49.134;9.212;2022-10-17T05:58:30;100468.63;;;12.95;97.09
49945;BME280;35838;49.134;9.212;2022-10-17T06:00:05;100473.88;;;12.93;97.39
49945;BME280;35838;49.134;9.212;2022-10-17T06:01:39;100480.78;;;12.93;97.84
49945;BME280;35838;49.134;9.212;2022-10-17T06:03:13;100487.72;;;12.98;97.67
49945;BME280;35838;49.134;9.212;2022-10-17T06:04:47;100485.13;;;12.98;97.61
49945;BME280;35838;49.134;9.212;2022-10-17T06:06:22;100489.44;;;13.04;97.70
49945;BME280;35838;49.134;9.212;2022-10-17T06:07:56;100485.97;;;13.08;96.90
49945;BME280;35838;49.134;9.212;2022-10-17T06:09:30;100484.22;;;13.01;97.03
49945;BME280;35838;49.134;9.212;2022-10-17T06:11:04;100482.50;;;13.03;96.96
49945;BME280;35838;49.134;9.212;2022-10-17T06:12:41;100488.53;;;13.07;97.01
49945;BME280;35838;49.134;9.212;2022-10-17T06:14:15;100486.00;;;12.99;97.11
49945;BME280;35838;49.134;9.212;2022-10-17T06:15:49;100491.28;;;12.79;99.04
49945;BME280;35838;49.134;9.212;2022-10-17T06:17:23;100494.78;;;12.70;100.00
49945;BME280;35838;49.134;9.212;2022-10-17T06:18:58;100488.72;;;12.63;100.00
49945;BME280;35838;49.134;9.212;2022-10-17T06:20:32;100491.31;;;12.69;100.00
49945;BME280;35838;49.134;9.212;2022-10-17T06:22:06;100496.50;;;12.74;100.00
49945;BME280;35838;49.134;9.212;2022-10-17T06:23:40;100491.28;;;12.80;100.00
49945;BME280;35838;49.134;9.212;2022-10-17T06:25:14;100491.28;;;12.77;100.00
49945;BME280;35838;49.134;9.212;2022-10-17T06:26:48;100498.22;;;12.83;100.00
49945;BME280;35838;49.134;9.212;2022-10-17T06:28:25;100503.41;;;12.88;100.00
49945;BME280;35838;49.134;9.212;2022-10-17T06:29:59;100506.88;;;12.91;99.89
49945;BME280;35838;49.134;9.212;2022-10-17T06:31:34;100511.19;;;12.95;99.42
49945;BME280;35838;49.134;9.212;2022-10-17T06:33:05;100508.59;;;12.97;99.13
49945;BME280;35838;49.134;9.212;2022-10-17T06:34:39;100512.03;;;13.02;99.16
49945;BME280;35838;49.134;9.212;2022-10-17T06:36:14;100512.91;;;12.99;99.13
49945;BME280;35838;49.134;9.212;2022-10-17T06:37:48;100522.44;;;13.08;98.86
49945;BME280;35838;49.134;9.212;2022-10-17T06:39:22;100525.91;;;13.04;98.72
49945;BME280;35838;49.134;9.212;2022-10-17T06:41:02;100519.81;;;13.07;98.69
49945;BME280;35838;49.134;9.212;2022-10-17T06:42:38;100516.31;;;13.12;98.79
49945;BME280;35838;49.134;9.212;2022-10-17T06:44:14;100518.94;;;13.15;98.58
49945;BME280;35838;49.134;9.212;2022-10-17T06:45:48;100522.41;;;13.14;98.80
49945;BME280;35838;49.134;9.212;2022-10-17T06:47:22;100524.09;;;13.22;98.55
49945;BME280;35838;49.134;9.212;2022-10-17T06:48:56;100520.66;;;13.16;98.72
49945;BME280;35838;49.134;9.212;2022-10-17T06:50:30;100525.78;;;13.29;98.31
49945;BME280;35838;49.134;9.212;2022-10-17T06:52:04;100524.03;;;13.36;97.81
49945;BME280;35838;49.134;9.212;2022-10-17T06:53:39;100522.28;;;13.35;97.91
49945;BME280;35838;49.134;9.212;2022-10-17T06:55:13;100523.16;;;13.43;97.82
49945;BME280;35838;49.134;9.212;2022-10-17T06:56:47;100522.28;;;13.44;98.02
49945;BME280;35838;49.134;9.212;2022-10-17T06:58:22;100535.25;;;13.50;97.74
49945;BME280;35838;49.134;9.212;2022-10-17T06:59:58;100537.84;;;13.55;97.62
49945;BME280;35838;49.134;9.212;2022-10-17T07:01:33;100546.53;;;13.60;97.58
49945;BME280;35838;49.134;9.212;2022-10-17T07:03:07;100541.25;;;13.63;97.43
49945;BME280;35838;49.134;9.212;2022-10-17T07:04:40;100543.91;;;13.61;97.57
49945;BME280;35838;49.134;9.212;2022-10-17T07:06:15;100550.84;;;13.62;97.86
49945;BME280;35838;49.134;9.212;2022-10-17T07:07:49;100548.22;;;13.67;97.61
49945;BME280;35838;49.134;9.212;2022-10-17T07:09:23;100539.47;;;13.71;97.89
49945;BME280;35838;49.134;9.212;2022-10-17T07:10:57;100539.47;;;13.74;97.31
49945;BME280;35838;49.134;9.212;2022-10-17T07:12:32;100549.03;;;13.74;96.72
49945;BME280;35838;49.134;9.212;2022-10-17T07:14:06;100548.06;;;13.84;96.18
49945;BME280;35838;49.134;9.212;2022-10-17T07:15:42;100553.22;;;13.95;95.76
49945;BME280;35838;49.134;9.212;2022-10-17T07:17:17;100554.91;;;14.02;95.24
49945;BME280;35838;49.134;9.212;2022-10-17T07:18:51;100555.75;;;14.09;94.82
49945;BME280;35838;49.134;9.212;2022-10-17T07:20:25;100553.03;;;14.20;94.50
49945;BME280;35838;49.134;9.212;2022-10-17T07:21:59;100545.09;;;14.31;93.19
49945;BME280;35838;49.134;9.212;2022-10-17T07:23:33;100555.50;;;14.35;92.10
49945;BME280;35838;49.134;9.212;2022-10-17T07:25:08;100553.84;;;14.26;92.91
49945;BME280;35838;49.134;9.212;2022-10-17T07:26:43;100560.69;;;14.40;93.34
49945;BME280;35838;49.134;9.212;2022-10-17T07:28:17;100563.22;;;14.48;93.32
49945;BME280;35838;49.134;9.212;2022-10-17T07:29:51;100559.69;;;14.52;92.91
49945;BME280;35838;49.134;9.212;2022-10-17T07:31:28;100569.19;;;14.59;92.22
49945;BME280;35838;49.134;9.212;2022-10-17T07:33:02;100567.44;;;14.61;92.05
49945;BME280;35838;49.134;9.212;2022-10-17T07:34:36;100575.22;;;14.66;91.53
49945;BME280;35838;49.134;9.212;2022-10-17T07:36:11;100574.38;;;14.67;91.95
49945;BME280;35838;49.134;9.212;2022-10-17T07:37:45;100574.38;;;14.67;92.34
49945;BME280;35838;49.134;9.212;2022-10-17T07:39:19;100573.44;;;14.76;92.14
49945;BME280;35838;49.134;9.212;2022-10-17T07:40:54;100570.72;;;14.83;92.26
49945;BME280;35838;49.134;9.212;2022-10-17T07:42:28;100560.22;;;14.88;92.22
49945;BME280;35838;49.134;9.212;2022-10-17T07:44:02;100578.47;;;14.91;91.72
49945;BME280;35838;49.134;9.212;2022-10-17T07:45:37;100579.34;;;14.92;91.33
49945;BME280;35838;49.134;9.212;2022-10-17T07:47:16;100574.88;;;15.00;90.26
49945;BME280;35838;49.134;9.212;2022-10-17T07:48:50;100577.47;;;15.03;90.18
49945;BME280;35838;49.134;9.212;2022-10-17T07:50:24;100577.38;;;15.09;89.83
49945;BME280;35838;49.134;9.212;2022-10-17T07:51:59;100567.81;;;15.10;90.24
49945;BME280;35838;49.134;9.212;2022-10-17T07:53:34;100575.63;;;15.11;90.19
49945;BME280;35838;49.134;9.212;2022-10-17T07:55:09;100572.06;;;15.18;89.52
49945;BME280;35838;49.134;9.212;2022-10-17T07:56:43;100571.19;;;15.18;88.35
49945;BME280;35838;49.134;9.212;2022-10-17T07:58:20;100573.75;;;15.21;87.92
49945;BME280;35838;49.134;9.212;2022-10-17T07:59:54;100573.78;;;15.19;88.05
49945;BME280;35838;49.134;9.212;2022-10-17T08:01:28;100573.69;;;15.27;88.47
49945;BME280;35838;49.134;9.212;2022-10-17T08:03:05;100571.03;;;15.30;89.11
49945;BME280;35838;49.134;9.212;2022-10-17T08:04:40;100568.34;;;15.35;89.06
49945;BME280;35838;49.134;9.212;2022-10-17T08:06:14;100570.97;;;15.37;89.42
49945;BME280;35838;49.134;9.212;2022-10-17T08:07:48;100572.56;;;15.45;89.84
49945;BME280;35838;49.134;9.212;2022-10-17T08:09:22;100570.72;;;15.55;90.07
49945;BME280;35838;49.134;9.212;2022-10-17T08:11:01;100568.09;;;15.54;89.77
49945;BME280;35838;49.134;9.212;2022-10-17T08:12:35;100576.78;;;15.57;89.59
49945;BME280;35838;49.134;9.212;2022-10-17T08:14:09;100572.28;;;15.65;89.00
49945;BME280;35838;49.134;9.212;2022-10-17T08:15:43;100574.03;;;15.66;88.49
49945;BME280;35838;49.134;9.212;2022-10-17T08:17:17;100582.78;;;15.64;88.80
49945;BME280;35838;49.134;9.212;2022-10-17T08:18:54;100575.66;;;15.74;88.66